createdAt,value
2018-06-21T00:00:31.949Z,99034.55
2018-06-21T00:03:02.928Z,99027.25
2018-06-21T00:05:34.157Z,99037.84
2018-06-21T00:08:05.386Z,99035.49
2018-06-21T00:10:36.676Z,99027.17
2018-06-21T00:13:07.918Z,99020.89
2018-06-21T00:15:39.996Z,99021.39
2018-06-21T00:18:11.809Z,99024.05
2018-06-21T00:20:43.098Z,99016.10
2018-06-21T00:23:14.250Z,99017.28
2018-06-21T00:25:45.372Z,99018.75
2018-06-21T00:28:16.450Z,99024.41
2018-06-21T00:30:47.649Z,99012.97
2018-06-21T00:33:19.280Z,99014.28
2018-06-21T00:35:51.370Z,99012.95
2018-06-21T00:38:22.588Z,99014.58
2018-06-21T00:40:53.710Z,99019.56
2018-06-21T00:43:24.874Z,99022.88
2018-06-21T00:45:56.152Z,99021.20
2018-06-21T00:48:27.218Z,99017.22
2018-06-21T00:50:58.878Z,99019.67
2018-06-21T00:53:31.037Z,99026.14
2018-06-21T00:56:16.792Z,99015.80
2018-06-21T00:58:48.662Z,99026.88
2018-06-21T01:01:20.152Z,99024.39
2018-06-21T01:03:52.178Z,99023.06
2018-06-21T01:06:23.127Z,99017.95
2018-06-21T01:08:54.197Z,99020.60
2018-06-21T01:11:25.439Z,99017.38
2018-06-21T01:13:57.181Z,99020.19
2018-06-21T01:16:28.558Z,99018.01
2018-06-21T01:19:00.063Z,99020.99
2018-06-21T01:21:31.959Z,99019.98
2018-06-21T01:24:03.080Z,99021.31
2018-06-21T01:26:33.647Z,99022.31
2018-06-21T01:29:04.875Z,99016.87
2018-06-21T01:31:36.056Z,99021.31
2018-06-21T01:34:07.112Z,99023.92
2018-06-21T01:36:38.592Z,99022.07
2018-06-21T01:39:10.451Z,99022.20
2018-06-21T01:41:41.729Z,99020.86
2018-06-21T01:44:13.744Z,99018.21
2018-06-21T01:46:45.420Z,99015.58
2018-06-21T01:49:16.602Z,99012.81
2018-06-21T01:51:48.652Z,99013.62
2018-06-21T01:54:19.763Z,99016.59
2018-06-21T01:56:50.903Z,99017.89
2018-06-21T01:59:22.179Z,99015.54
2018-06-21T02:01:54.432Z,99010.57
2018-06-21T02:04:25.973Z,99023.97
2018-06-21T02:06:57.849Z,99018.54
2018-06-21T02:09:29.051Z,99019.19
2018-06-21T02:12:00.341Z,99015.84
2018-06-21T02:14:31.280Z,99020.14
2018-06-21T02:17:02.786Z,99018.33
2018-06-21T02:19:35.179Z,99021.63
2018-06-21T02:22:06.287Z,99011.85
2018-06-21T02:24:37.442Z,99016.39
2018-06-21T02:27:08.603Z,99016.02
2018-06-21T02:29:41.522Z,99013.07
2018-06-21T02:32:13.064Z,99013.86
2018-06-21T02:34:45.802Z,99010.05
2018-06-21T02:37:17.716Z,99009.96
2018-06-21T02:39:48.694Z,99004.13
2018-06-21T02:42:19.821Z,99009.87
2018-06-21T02:44:50.987Z,99011.17
2018-06-21T02:47:22.455Z,99010.48
2018-06-21T02:49:53.715Z,99013.46
2018-06-21T02:52:25.077Z,99012.30
2018-06-21T02:54:56.234Z,99007.45
2018-06-21T02:57:27.442Z,99002.14
2018-06-21T02:59:59.704Z,99011.84
2018-06-21T03:02:30.898Z,99006.75
2018-06-21T03:05:02.099Z,99002.42
2018-06-21T03:07:33.259Z,99004.42
2018-06-21T03:10:05.223Z,99005.10
2018-06-21T03:12:36.234Z,99007.88
2018-06-21T03:15:07.253Z,99004.04
2018-06-21T03:17:39.098Z,99007.94
2018-06-21T03:20:09.971Z,99009.27
2018-06-21T03:22:40.664Z,99007.48
2018-06-21T03:25:12.281Z,99014.46
2018-06-21T03:27:44.408Z,99018.43
2018-06-21T03:30:15.343Z,99011.98
2018-06-21T03:32:46.998Z,99012.55
2018-06-21T03:35:18.015Z,99014.88
2018-06-21T03:37:49.163Z,99012.48
2018-06-21T03:40:20.523Z,99013.28
2018-06-21T03:42:51.989Z,99015.64
2018-06-21T03:45:23.120Z,99011.88
2018-06-21T03:47:53.572Z,99013.30
2018-06-21T03:50:24.355Z,99006.39
2018-06-21T03:52:56.166Z,99016.05
2018-06-21T03:55:27.401Z,99012.08
2018-06-21T03:57:58.543Z,99010.65
2018-06-21T04:00:30.407Z,99015.06
2018-06-21T04:03:02.446Z,99016.97
2018-06-21T04:05:33.691Z,99007.05
2018-06-21T04:08:06.000Z,99010.77
2018-06-21T04:10:37.231Z,99013.12
2018-06-21T04:13:08.640Z,99012.55
2018-06-21T04:15:40.101Z,99010.28
2018-06-21T04:18:11.320Z,99014.30
2018-06-21T04:20:42.753Z,99012.69
2018-06-21T04:23:15.460Z,99014.36
2018-06-21T04:25:47.053Z,99017.13
2018-06-21T04:28:17.949Z,99015.78
2018-06-21T04:30:49.312Z,99019.30
2018-06-21T04:33:20.561Z,99017.62
2018-06-21T04:35:51.765Z,99017.98
2018-06-21T04:38:22.805Z,99019.03
2018-06-21T04:40:55.379Z,99016.59
2018-06-21T04:43:26.347Z,99013.63
2018-06-21T04:45:57.444Z,99022.17
2018-06-21T04:48:28.950Z,99013.56
2018-06-21T04:51:00.098Z,99018.05
2018-06-21T04:53:31.255Z,99005.64
2018-06-21T04:56:02.482Z,99008.98
2018-06-21T04:58:33.893Z,99012.83
2018-06-21T05:01:04.886Z,99010.01
2018-06-21T05:03:36.259Z,99009.34
2018-06-21T05:06:07.396Z,99008.02
2018-06-21T05:08:40.032Z,99012.66
2018-06-21T05:11:11.333Z,99014.95
2018-06-21T05:13:42.684Z,99019.30
2018-06-21T05:16:13.854Z,99024.26
2018-06-21T05:18:45.218Z,99016.30
2018-06-21T05:21:16.465Z,99022.31
2018-06-21T05:23:48.796Z,99026.33
2018-06-21T05:26:19.544Z,99023.66
2018-06-21T05:28:50.702Z,99027.64
2018-06-21T05:31:22.155Z,99023.29
2018-06-21T05:33:54.106Z,99030.70
2018-06-21T05:36:25.157Z,99025.03
2018-06-21T05:38:57.147Z,99026.36
2018-06-21T05:41:28.896Z,99029.74
2018-06-21T05:43:59.997Z,99035.30
2018-06-21T05:46:31.388Z,99032.19
2018-06-21T05:49:01.935Z,99022.83
2018-06-21T05:51:33.013Z,99028.80
2018-06-21T05:54:04.278Z,99031.25
2018-06-21T05:56:35.753Z,99020.91
2018-06-21T05:59:07.267Z,99023.88
2018-06-21T06:01:38.788Z,99022.70
2018-06-21T06:04:10.893Z,99033.30
2018-06-21T06:06:42.318Z,99030.60
2018-06-21T06:09:14.187Z,99027.44
2018-06-21T06:11:46.002Z,99033.80
2018-06-21T06:14:17.182Z,99035.66
2018-06-21T06:16:47.977Z,99038.05
2018-06-21T06:19:19.140Z,99037.48
2018-06-21T06:21:51.162Z,99037.20
2018-06-21T06:24:22.694Z,99031.90
2018-06-21T06:26:55.015Z,99035.83
2018-06-21T06:29:28.196Z,99037.20
2018-06-21T06:32:00.311Z,99034.80
2018-06-21T06:34:31.440Z,99032.87
2018-06-21T06:37:02.829Z,99034.00
2018-06-21T06:39:33.760Z,99030.84
2018-06-21T06:42:05.084Z,99022.52
2018-06-21T06:44:37.316Z,99018.86
2018-06-21T06:47:09.880Z,99019.59
2018-06-21T06:49:41.266Z,99022.43
2018-06-21T06:52:14.117Z,99020.44
2018-06-21T06:54:45.358Z,99020.86
2018-06-21T06:57:17.779Z,99017.51
2018-06-21T06:59:49.345Z,99020.23
2018-06-21T07:02:21.662Z,99014.73
2018-06-21T07:04:52.306Z,99012.02
2018-06-21T07:07:23.304Z,99016.39
2018-06-21T07:09:56.187Z,99015.72
2018-06-21T07:12:27.732Z,99011.02
2018-06-21T07:14:59.724Z,99016.95
2018-06-21T07:17:30.993Z,99013.19
2018-06-21T07:20:03.237Z,99016.55
2018-06-21T07:22:34.667Z,99002.94
2018-06-21T07:25:06.374Z,99011.96
2018-06-21T07:27:38.817Z,99008.35
2018-06-21T07:30:10.074Z,99007.44
2018-06-21T07:32:41.816Z,99005.63
2018-06-21T07:35:13.016Z,99003.16
2018-06-21T07:37:44.152Z,99002.97
2018-06-21T07:40:15.813Z,99001.42
2018-06-21T07:42:47.412Z,99000.84
2018-06-21T07:45:19.406Z,99005.53
2018-06-21T07:47:50.836Z,98995.89
2018-06-21T07:50:22.575Z,98994.25
2018-06-21T07:52:54.131Z,98985.45
2018-06-21T07:55:25.285Z,98990.66
2018-06-21T07:57:56.690Z,98994.75
2018-06-21T08:00:28.707Z,98987.03
2018-06-21T08:03:00.473Z,98991.10
2018-06-21T08:05:31.511Z,98989.11
2018-06-21T08:08:06.011Z,98989.98
2018-06-21T08:10:40.181Z,98982.34
2018-06-21T08:13:12.127Z,98982.08
2018-06-21T08:15:46.474Z,98981.48
2018-06-21T08:18:19.544Z,98986.98
2018-06-21T08:20:56.227Z,98985.70
2018-06-21T08:23:32.581Z,98981.52
2018-06-21T08:26:05.343Z,98980.80
2018-06-21T08:28:38.231Z,98981.23
2018-06-21T08:31:10.000Z,98973.75
2018-06-21T08:33:41.748Z,98982.30
2018-06-21T08:36:13.733Z,98978.84
2018-06-21T08:38:45.726Z,98980.00
2018-06-21T08:41:17.068Z,98977.55
2018-06-21T08:43:49.735Z,98971.59
2018-06-21T08:46:22.822Z,98963.09
2018-06-21T08:48:55.343Z,98970.38
2018-06-21T08:51:28.287Z,98969.67
2018-06-21T08:53:59.630Z,98964.74
2018-06-21T08:56:31.927Z,98971.55
2018-06-21T08:59:04.752Z,98968.77
2018-06-21T09:01:37.281Z,98966.09
2018-06-21T09:04:08.873Z,98972.87
2018-06-21T09:06:40.100Z,98967.39
2018-06-21T09:09:11.686Z,98962.77
2018-06-21T09:11:43.574Z,98961.92
2018-06-21T09:14:15.097Z,98964.22
2018-06-21T09:16:47.874Z,98965.22
2018-06-21T09:19:20.354Z,98955.16
2018-06-21T09:21:51.722Z,98957.04
2018-06-21T09:24:23.743Z,98962.47
2018-06-21T09:26:57.026Z,98955.70
2018-06-21T09:29:28.789Z,98961.77
2018-06-21T09:32:02.186Z,98954.72
2018-06-21T09:34:35.695Z,98956.52
2018-06-21T09:37:07.939Z,98954.61
2018-06-21T09:39:45.511Z,98948.78
2018-06-21T09:42:23.173Z,98938.84
2018-06-21T09:44:59.712Z,98944.69
2018-06-21T09:47:37.397Z,98954.86
2018-06-21T09:50:18.079Z,98950.98
2018-06-21T09:52:53.006Z,98939.02
2018-06-21T09:55:27.407Z,98936.08
2018-06-21T09:57:59.645Z,98932.46
2018-06-21T10:00:36.262Z,98936.63
2018-06-21T10:03:07.839Z,98940.97
2018-06-21T10:05:40.582Z,98932.55
2018-06-21T10:08:12.821Z,98925.48
2018-06-21T10:10:44.296Z,98924.93
2018-06-21T10:13:16.112Z,98917.38
2018-06-21T10:15:47.867Z,98907.82
2018-06-21T10:18:20.425Z,98912.22
2018-06-21T10:20:53.158Z,98909.09
2018-06-21T10:23:25.554Z,98900.97
2018-06-21T10:25:57.273Z,98900.16
2018-06-21T10:28:27.969Z,98900.44
2018-06-21T10:31:00.433Z,98900.71
2018-06-21T10:33:31.705Z,98899.53
2018-06-21T10:36:06.134Z,98892.91
2018-06-21T10:38:44.379Z,98893.48
2018-06-21T10:41:15.685Z,98897.11
2018-06-21T10:43:47.371Z,98904.81
2018-06-21T10:46:20.130Z,98889.59
2018-06-21T10:48:53.034Z,98883.39
2018-06-21T10:51:25.173Z,98882.78
2018-06-21T10:53:55.812Z,98871.27
2018-06-21T10:56:27.068Z,98870.70
2018-06-21T10:58:58.963Z,98867.72
2018-06-21T11:01:30.920Z,98882.09
2018-06-21T11:04:02.373Z,98875.31
2018-06-21T11:06:38.659Z,98874.19
2018-06-21T11:09:10.743Z,98867.38
2018-06-21T11:11:43.870Z,98856.93
2018-06-21T11:14:15.325Z,98859.92
2018-06-21T11:16:46.403Z,98849.09
2018-06-21T11:19:17.807Z,98845.13
2018-06-21T11:21:49.284Z,98840.18
2018-06-21T11:24:21.268Z,98831.13
2018-06-21T11:26:56.860Z,98824.50
2018-06-21T11:29:28.125Z,98829.79
2018-06-21T11:31:59.578Z,98828.64
2018-06-21T11:34:30.838Z,98816.03
2018-06-21T11:37:04.464Z,98810.59
2018-06-21T11:39:35.995Z,98815.30
2018-06-21T11:42:07.079Z,98812.27
2018-06-21T11:44:38.686Z,98823.52
2018-06-21T11:47:10.745Z,98829.03
2018-06-21T11:49:42.163Z,98834.67
2018-06-21T11:52:14.403Z,98857.20
2018-06-21T11:54:46.663Z,98841.28
2018-06-21T11:57:17.753Z,98846.78
2018-06-21T11:59:49.224Z,98837.36
2018-06-21T12:02:21.709Z,98832.45
2018-06-21T12:04:53.057Z,98808.58
2018-06-21T12:07:28.115Z,98805.22
2018-06-21T12:10:00.482Z,98795.91
2018-06-21T12:12:32.661Z,98804.80
2018-06-21T12:15:03.287Z,98817.05
2018-06-21T12:17:34.523Z,98831.80
2018-06-21T12:20:05.706Z,98859.83
2018-06-21T12:22:36.961Z,98855.72
2018-06-21T12:25:08.933Z,98853.08
2018-06-21T12:27:40.804Z,98844.08
2018-06-21T12:30:11.967Z,98841.31
2018-06-21T12:32:43.329Z,98842.55
2018-06-21T12:35:16.017Z,98852.88
2018-06-21T12:37:47.178Z,98849.41
2018-06-21T12:40:18.561Z,98850.52
2018-06-21T12:42:52.681Z,98857.14
2018-06-21T12:45:24.000Z,98854.45
2018-06-21T12:47:56.402Z,98849.08
2018-06-21T12:50:27.526Z,98843.51
2018-06-21T12:52:58.855Z,98838.01
2018-06-21T12:55:33.806Z,98830.58
2018-06-21T12:58:05.897Z,98824.72
2018-06-21T13:00:38.568Z,98828.33
2018-06-21T13:03:11.267Z,98815.06
2018-06-21T13:05:44.070Z,98805.30
2018-06-21T13:08:25.947Z,98809.00
2018-06-21T13:11:07.603Z,98812.53
2018-06-21T13:13:39.535Z,98795.46
2018-06-21T13:16:11.941Z,98790.51
2018-06-21T13:18:43.757Z,98781.84
2018-06-21T13:21:17.267Z,98779.53
2018-06-21T13:23:48.740Z,98780.31
2018-06-21T13:26:20.547Z,98778.58
2018-06-21T13:28:52.897Z,98781.59
2018-06-21T13:31:24.358Z,98768.56
2018-06-21T13:33:55.872Z,98763.77
2018-06-21T13:36:27.437Z,98765.06
2018-06-21T13:38:59.370Z,98766.36
2018-06-21T13:41:30.612Z,98771.75
2018-06-21T13:44:01.826Z,98774.44
2018-06-21T13:46:34.534Z,98781.42
2018-06-21T13:49:06.079Z,98788.78
2018-06-21T13:51:37.897Z,98793.07
2018-06-21T13:54:10.771Z,98795.08
2018-06-21T13:56:43.767Z,98791.64
2018-06-21T13:59:15.377Z,98788.52
2018-06-21T14:01:47.292Z,98787.29
2018-06-21T14:04:19.067Z,98784.09
2018-06-21T14:06:50.946Z,98777.70
2018-06-21T14:09:22.916Z,98778.44
2018-06-21T14:11:55.127Z,98774.32
2018-06-21T14:14:26.475Z,98774.97
2018-06-21T14:16:57.935Z,98772.60
2018-06-21T14:19:29.635Z,98768.20
2018-06-21T14:22:00.994Z,98769.42
2018-06-21T14:24:34.768Z,98753.58
2018-06-21T14:27:06.068Z,98752.89
2018-06-21T14:29:37.555Z,98748.94
2018-06-21T14:32:09.414Z,98736.61
2018-06-21T14:34:45.527Z,98735.53
2018-06-21T14:37:18.421Z,98735.80
2018-06-21T14:39:50.627Z,98723.86
2018-06-21T14:42:22.711Z,98723.11
2018-06-21T14:44:54.536Z,98720.09
2018-06-21T14:47:26.327Z,98715.75
2018-06-21T14:49:58.652Z,98709.29
2018-06-21T14:52:30.354Z,98697.37
2018-06-21T14:55:01.077Z,98702.66
2018-06-21T14:57:33.900Z,98690.91
2018-06-21T15:00:06.987Z,98687.31
2018-06-21T15:02:38.632Z,98682.09
2018-06-21T15:05:10.099Z,98680.09
2018-06-21T15:07:41.469Z,98684.79
2018-06-21T15:10:13.672Z,98680.89
2018-06-21T15:12:45.386Z,98671.41
2018-06-21T15:15:18.226Z,98671.45
2018-06-21T15:17:49.985Z,98672.73
2018-06-21T15:20:21.874Z,98681.95
2018-06-21T15:22:53.723Z,98684.50
2018-06-21T15:25:25.114Z,98681.45
2018-06-21T15:27:59.639Z,98683.20
2018-06-21T15:30:32.467Z,98679.70
2018-06-21T15:33:03.557Z,98684.00
2018-06-21T15:35:36.598Z,98679.75
2018-06-21T15:38:09.935Z,98678.17
2018-06-21T15:40:41.828Z,98684.63
2018-06-21T15:43:14.570Z,98684.58
2018-06-21T15:45:46.471Z,98687.84
2018-06-21T15:48:21.419Z,98686.22
2018-06-21T15:50:54.832Z,98690.67
2018-06-21T15:53:25.554Z,98679.75
2018-06-21T15:55:56.636Z,98674.23
2018-06-21T15:58:28.740Z,98675.14
2018-06-21T16:01:00.432Z,98668.41
2018-06-21T16:03:32.154Z,98668.08
2018-06-21T16:06:04.278Z,98662.91
2018-06-21T16:08:35.840Z,98670.72
2018-06-21T16:11:06.365Z,98680.16
2018-06-21T16:13:39.349Z,98669.70
2018-06-21T16:16:12.175Z,98676.99
2018-06-21T16:18:43.092Z,98679.39
2018-06-21T16:21:14.117Z,98675.78
2018-06-21T16:23:44.966Z,98686.68
2018-06-21T16:26:16.490Z,98686.52
2018-06-21T16:28:49.733Z,98681.64
2018-06-21T16:31:21.155Z,98680.84
2018-06-21T16:33:53.220Z,98679.56
2018-06-21T16:36:24.532Z,98684.73
2018-06-21T16:38:56.883Z,98687.45
2018-06-21T16:41:28.356Z,98692.00
2018-06-21T16:43:59.432Z,98693.56
2018-06-21T16:46:31.129Z,98702.19
2018-06-21T16:49:02.827Z,98704.80
2018-06-21T16:51:35.439Z,98709.72
2018-06-21T16:54:06.831Z,98708.69
2018-06-21T16:56:38.475Z,98715.84
2018-06-21T16:59:08.964Z,98712.59
2018-06-21T17:01:40.222Z,98701.78
2018-06-21T17:04:11.665Z,98699.63
2018-06-21T17:06:44.393Z,98695.02
2018-06-21T17:09:16.141Z,98701.09
2018-06-21T17:11:47.396Z,98702.07
2018-06-21T17:14:18.776Z,98697.33
2018-06-21T17:16:50.486Z,98697.22
2018-06-21T17:19:23.221Z,98696.60
2018-06-21T17:21:54.691Z,98698.27
2018-06-21T17:24:27.803Z,98699.72
2018-06-21T17:26:58.714Z,98701.55
2018-06-21T17:29:30.094Z,98698.09
2018-06-21T17:32:01.569Z,98696.82
2018-06-21T17:34:33.995Z,98686.94
2018-06-21T17:37:05.709Z,98690.84
2018-06-21T17:39:39.132Z,98686.27
2018-06-21T17:42:10.640Z,98687.89
2018-06-21T17:44:42.751Z,98684.70
2018-06-21T17:47:13.871Z,98681.81
2018-06-21T17:49:46.060Z,98682.31
2018-06-21T17:52:17.403Z,98688.28
2018-06-21T17:54:48.878Z,98686.22
2018-06-21T17:57:23.791Z,98686.94
2018-06-21T17:59:55.383Z,98682.65
2018-06-21T18:02:27.412Z,98684.56
2018-06-21T18:04:59.350Z,98694.98
2018-06-21T18:07:30.923Z,98700.02
2018-06-21T18:10:02.772Z,98691.98
2018-06-21T18:12:35.943Z,98694.45
2018-06-21T18:15:07.976Z,98684.97
2018-06-21T18:17:39.768Z,98692.70
2018-06-21T18:20:13.287Z,98691.48
2018-06-21T18:22:45.927Z,98693.83
2018-06-21T18:25:20.568Z,98700.95
2018-06-21T18:27:55.519Z,98703.73
2018-06-21T18:30:27.930Z,98704.45
2018-06-21T18:33:00.636Z,98708.67
2018-06-21T18:35:32.961Z,98716.47
2018-06-21T18:38:05.486Z,98712.45
2018-06-21T18:40:38.087Z,98716.95
2018-06-21T18:43:10.147Z,98715.63
2018-06-21T18:45:42.580Z,98715.77
2018-06-21T18:48:15.322Z,98709.45
2018-06-21T18:50:48.607Z,98713.02
2018-06-21T18:53:21.600Z,98714.48
2018-06-21T18:55:54.853Z,98718.46
2018-06-21T18:58:27.373Z,98727.40
2018-06-21T19:00:59.196Z,98734.99
2018-06-21T19:03:31.702Z,98743.98
2018-06-21T19:06:04.976Z,98743.05
2018-06-21T19:08:43.422Z,98737.30
2018-06-21T19:11:21.026Z,98739.64
2018-06-21T19:13:53.522Z,98747.94
2018-06-21T19:16:26.848Z,98747.96
2018-06-21T19:19:00.526Z,98746.30
2018-06-21T19:21:33.551Z,98752.59
2018-06-21T19:24:06.276Z,98751.14
2018-06-21T19:26:40.246Z,98756.34
2018-06-21T19:29:17.840Z,98747.70
2018-06-21T19:31:54.555Z,98749.50
2018-06-21T19:34:30.775Z,98751.41
2018-06-21T19:37:05.527Z,98757.13
2018-06-21T19:39:46.255Z,98756.98
2018-06-21T19:42:20.588Z,98752.42
2018-06-21T19:44:53.727Z,98760.80
2018-06-21T19:47:31.589Z,98762.54
2018-06-21T19:50:05.276Z,98769.84
2018-06-21T19:52:38.679Z,98776.05
2018-06-21T19:55:14.535Z,98776.59
2018-06-21T19:57:47.967Z,98772.78
2018-06-21T20:00:37.087Z,98771.95
2018-06-21T20:03:21.204Z,98770.38
2018-06-21T20:05:57.705Z,98779.28
2018-06-21T20:08:32.123Z,98775.32
2018-06-21T20:11:11.071Z,98781.69
2018-06-21T20:13:51.958Z,98787.72
2018-06-21T20:16:28.777Z,98793.24
2018-06-21T20:19:08.988Z,98798.17
2018-06-21T20:21:43.947Z,98798.54
2018-06-21T20:24:21.594Z,98797.63
2018-06-21T20:26:59.580Z,98798.77
2018-06-21T20:29:33.281Z,98809.80
2018-06-21T20:32:07.179Z,98811.33
2018-06-21T20:34:47.242Z,98810.69
2018-06-21T20:37:26.226Z,98814.31
2018-06-21T20:40:05.972Z,98812.63
2018-06-21T20:42:45.271Z,98808.98
2018-06-21T20:45:25.558Z,98802.97
2018-06-21T20:48:04.529Z,98802.12
2018-06-21T20:50:44.385Z,98800.45
2018-06-21T20:53:20.065Z,98795.12
2018-06-21T20:55:53.703Z,98795.91
2018-06-21T20:58:29.112Z,98786.98
2018-06-21T21:01:05.092Z,98796.78
2018-06-21T21:03:38.970Z,98799.70
2018-06-21T21:06:16.420Z,98801.56
2018-06-21T21:08:53.356Z,98800.12
2018-06-21T21:11:28.964Z,98789.48
2018-06-21T21:14:03.681Z,98795.98
2018-06-21T21:16:38.612Z,98792.42
2018-06-21T21:19:12.328Z,98798.47
2018-06-21T21:21:51.895Z,98789.53
2018-06-21T21:24:25.622Z,98786.38
2018-06-21T21:26:57.193Z,98786.42
2018-06-21T21:29:29.165Z,98796.14
2018-06-21T21:32:00.600Z,98795.38
2018-06-21T21:34:32.646Z,98800.23
2018-06-21T21:37:05.266Z,98796.06
2018-06-21T21:39:36.866Z,98792.06
2018-06-21T21:42:09.468Z,98799.40
2018-06-21T21:44:41.137Z,98794.05
2018-06-21T21:47:12.712Z,98789.75
2018-06-21T21:49:44.426Z,98789.56
2018-06-21T21:52:16.508Z,98789.78
2018-06-21T21:54:47.833Z,98791.80
2018-06-21T21:57:19.997Z,98796.84
2018-06-21T21:59:51.604Z,98801.91
2018-06-21T22:02:22.388Z,98804.41
2018-06-21T22:04:54.935Z,98806.30
2018-06-21T22:07:27.681Z,98805.34
2018-06-21T22:10:00.704Z,98800.97
2018-06-21T22:12:33.279Z,98804.30
2018-06-21T22:15:06.308Z,98808.28
2018-06-21T22:17:37.797Z,98806.20
2018-06-21T22:20:09.677Z,98803.11
2018-06-21T22:22:41.589Z,98799.50
2018-06-21T22:25:13.610Z,98803.08
2018-06-21T22:27:45.388Z,98803.27
2018-06-21T22:30:16.846Z,98803.77
2018-06-21T22:32:48.157Z,98801.59
2018-06-21T22:35:19.931Z,98805.27
2018-06-21T22:37:51.765Z,98807.56
2018-06-21T22:40:24.306Z,98803.91
2018-06-21T22:42:55.086Z,98804.05
2018-06-21T22:45:27.417Z,98806.05
2018-06-21T22:47:58.826Z,98804.41
2018-06-21T22:50:30.089Z,98805.06
2018-06-21T22:53:02.551Z,98804.92
2018-06-21T22:55:34.641Z,98811.25
2018-06-21T22:58:06.931Z,98806.92
2018-06-21T23:00:38.775Z,98804.61
2018-06-21T23:03:10.100Z,98795.61
2018-06-21T23:05:41.252Z,98795.61
2018-06-21T23:08:13.017Z,98792.65
2018-06-21T23:10:44.028Z,98794.67
2018-06-21T23:13:14.878Z,98795.84
2018-06-21T23:15:46.141Z,98795.37
2018-06-21T23:18:32.193Z,98795.50
2018-06-21T23:21:03.393Z,98792.03
2018-06-21T23:23:34.473Z,98795.17
2018-06-21T23:26:05.702Z,98798.30
2018-06-21T23:28:37.191Z,98788.36
2018-06-21T23:31:08.612Z,98780.38
2018-06-21T23:33:40.902Z,98783.20
2018-06-21T23:36:12.774Z,98779.44
2018-06-21T23:38:44.822Z,98776.80
2018-06-21T23:41:15.969Z,98772.53
2018-06-21T23:43:47.169Z,98773.51
2018-06-21T23:46:18.230Z,98771.05
2018-06-21T23:48:49.507Z,98773.03
2018-06-21T23:51:21.464Z,98783.15
2018-06-21T23:53:52.568Z,98776.20
2018-06-21T23:56:23.534Z,98769.22
2018-06-21T23:58:54.739Z,98770.06
